Time;durP1;ratioP1;P1;durP2;ratioP2;P2;SDS_P1;SDS_P2;PMS_P1;PMS_P2;Temp;Humidity;BMP_temperature;BMP_pressure;BME280_temperature;BME280_humidity;BME280_pressure;Samples;Min_cycle;Max_cycle;Signal;HPM_P1;HPM_P2
2024/04/07 00:00:44;;;;;;;4.38;2.40;;;18.10;65.40;;;;;;5047780;28;20187;-62
2024/04/07 00:03:10;;;;;;;6.28;2.33;;;18.10;65.50;;;;;;5052999;28;20215;-61
2024/04/07 00:05:36;;;;;;;4.00;2.28;;;18.10;65.50;;;;;;5053424;28;20206;-61
2024/04/07 00:08:01;;;;;;;3.67;1.95;;;18.10;65.40;;;;;;5051566;28;20649;-62
2024/04/07 00:10:27;;;;;;;3.08;2.47;;;18.10;65.40;;;;;;5052800;28;20186;-63
2024/04/07 00:12:52;;;;;;;3.65;2.63;;;18.10;65.40;;;;;;5052879;28;20186;-62
2024/04/07 00:15:19;;;;;;;2.78;2.05;;;18.10;65.30;;;;;;5052034;28;20265;-62
2024/04/07 00:17:46;;;;;;;2.67;2.08;;;18.10;66.20;;;;;;5052479;28;20258;-62
2024/04/07 00:20:12;;;;;;;2.67;2.08;;;18.10;65.40;;;;;;5051438;28;20175;-62
2024/04/07 00:22:37;;;;;;;3.03;2.00;;;18.10;65.20;;;;;;5052358;28;20229;-62
2024/04/07 00:25:04;;;;;;;2.50;1.90;;;18.10;65.40;;;;;;5053190;28;20552;-62
2024/04/07 00:27:29;;;;;;;3.00;2.28;;;18.10;65.40;;;;;;5052487;28;20171;-62
2024/04/07 00:29:55;;;;;;;2.83;2.30;;;18.10;65.40;;;;;;5052091;28;20186;-61
2024/04/07 00:32:20;;;;;;;2.75;2.03;;;18.10;65.40;;;;;;5052603;28;20265;-62
2024/04/07 00:34:49;;;;;;;2.53;2.10;;;18.10;65.30;;;;;;5053241;28;20168;-62
2024/04/07 00:37:15;;;;;;;4.20;2.53;;;18.10;65.50;;;;;;5051846;28;20198;-61
2024/04/07 00:39:42;;;;;;;2.05;1.88;;;18.00;65.30;;;;;;5052704;28;20179;-62
2024/04/07 00:42:08;;;;;;;2.28;2.03;;;18.10;65.40;;;;;;5052038;28;20262;-61
2024/04/07 00:44:34;;;;;;;2.70;2.28;;;18.10;65.20;;;;;;5051983;28;20175;-63
2024/04/07 00:46:59;;;;;;;3.65;2.40;;;18.10;65.40;;;;;;5052602;28;20177;-62
2024/04/07 00:49:25;;;;;;;2.97;2.15;;;18.00;65.20;;;;;;5050393;28;20179;-63
2024/04/07 00:51:50;;;;;;;2.38;1.88;;;18.10;65.30;;;;;;5051822;28;20534;-63
2024/04/07 00:54:16;;;;;;;3.10;2.13;;;18.00;65.20;;;;;;5050950;28;20175;-62
2024/04/07 00:56:41;;;;;;;2.53;2.33;;;18.10;65.20;;;;;;5050462;28;20174;-63
2024/04/07 00:59:07;;;;;;;2.22;1.85;;;18.10;65.30;;;;;;5051424;28;20297;-60
2024/04/07 01:01:32;;;;;;;3.45;2.10;;;18.10;66.20;;;;;;5052184;28;20233;-61
2024/04/07 01:03:58;;;;;;;2.03;1.80;;;18.10;65.20;;;;;;5051460;28;20207;-61
2024/04/07 01:06:24;;;;;;;3.42;2.22;;;18.10;65.30;;;;;;5052145;28;20171;-62
2024/04/07 01:08:50;;;;;;;4.22;2.33;;;18.10;66.00;;;;;;5047014;28;20641;-63
2024/04/07 01:11:16;;;;;;;3.08;2.10;;;18.10;65.20;;;;;;5050069;28;20187;-62
2024/04/07 01:13:42;;;;;;;2.40;2.20;;;18.10;65.20;;;;;;5052357;28;20179;-62
2024/04/07 01:16:07;;;;;;;2.38;1.83;;;18.10;65.20;;;;;;5052231;28;20175;-63
2024/04/07 01:18:33;;;;;;;4.90;2.42;;;18.00;65.20;;;;;;5043816;28;20631;-62
2024/04/07 01:20:58;;;;;;;2.08;1.80;;;18.10;65.20;;;;;;5032153;28;20248;-62
2024/04/07 01:23:24;;;;;;;3.75;2.00;;;18.10;65.20;;;;;;5031367;28;20251;-62
2024/04/07 01:25:49;;;;;;;2.30;1.75;;;18.00;65.10;;;;;;5031200;28;20176;-62
2024/04/07 01:28:15;;;;;;;2.22;2.03;;;18.10;65.20;;;;;;5031902;28;20186;-62
2024/04/07 01:30:42;;;;;;;2.58;2.10;;;18.00;65.10;;;;;;5031718;28;20228;-63
2024/04/07 01:33:07;;;;;;;2.78;2.03;;;18.10;65.20;;;;;;5031037;28;20191;-62
2024/04/07 01:35:34;;;;;;;2.47;2.28;;;18.00;65.20;;;;;;5031836;28;20566;-62
2024/04/07 01:38:00;;;;;;;3.28;2.22;;;18.10;65.30;;;;;;5031905;28;20543;-62
2024/04/07 01:40:25;;;;;;;3.15;2.22;;;18.00;65.20;;;;;;5030861;28;20186;-63
2024/04/07 01:42:51;;;;;;;2.83;2.10;;;18.00;65.20;;;;;;5031528;28;20227;-62
2024/04/07 01:45:17;;;;;;;2.25;2.05;;;18.00;65.20;;;;;;5031417;28;20179;-62
2024/04/07 01:47:43;;;;;;;2.53;2.08;;;18.00;65.20;;;;;;5030906;28;20180;-62
2024/04/07 01:50:09;;;;;;;3.42;2.15;;;18.00;65.20;;;;;;5031360;28;20175;-63
2024/04/07 01:52:34;;;;;;;4.63;2.05;;;18.00;65.20;;;;;;5031090;28;20214;-64
2024/04/07 01:55:00;;;;;;;4.22;2.30;;;18.00;65.10;;;;;;5030284;28;20579;-63
2024/04/07 01:57:26;;;;;;;2.78;1.95;;;18.00;65.20;;;;;;5031177;28;20635;-63
2024/04/07 01:59:52;;;;;;;3.17;2.03;;;18.00;65.20;;;;;;5031246;28;20187;-61
2024/04/07 02:02:19;;;;;;;2.60;1.90;;;18.00;65.10;;;;;;5031448;28;20277;-61
2024/04/07 02:04:48;;;;;;;3.85;2.47;;;18.00;65.10;;;;;;5031649;28;20258;-62
2024/04/07 02:07:14;;;;;;;3.00;1.95;;;18.00;65.20;;;;;;5049018;28;20296;-62
2024/04/07 02:09:40;;;;;;;3.30;2.33;;;18.00;65.10;;;;;;5051369;28;20576;-65
2024/04/07 02:12:06;;;;;;;2.85;1.98;;;18.00;65.90;;;;;;5039321;28;20685;-63
2024/04/07 02:14:32;;;;;;;2.50;2.20;;;18.00;65.10;;;;;;5030789;28;20180;-64
2024/04/07 02:16:57;;;;;;;3.47;2.03;;;18.00;65.00;;;;;;5031787;28;20218;-62
2024/04/07 02:19:23;;;;;;;2.17;1.80;;;18.00;65.20;;;;;;5031072;28;20517;-62
2024/04/07 02:21:49;;;;;;;3.78;2.25;;;18.00;65.10;;;;;;5049338;28;20168;-62
2024/04/07 02:24:14;;;;;;;3.38;1.83;;;18.00;65.10;;;;;;5051114;28;20298;-62
2024/04/07 02:26:40;;;;;;;2.65;1.95;;;18.00;65.10;;;;;;5051321;28;20175;-63
2024/04/07 02:29:06;;;;;;;2.15;1.77;;;18.00;65.00;;;;;;5050235;28;20241;-60
2024/04/07 02:31:32;;;;;;;2.58;2.10;;;18.00;65.00;;;;;;5050102;28;20171;-62
2024/04/07 02:33:57;;;;;;;3.08;2.05;;;18.00;65.00;;;;;;5051091;28;20190;-62
2024/04/07 02:36:23;;;;;;;3.35;2.13;;;18.00;65.00;;;;;;5049664;28;20168;-61
2024/04/07 02:38:48;;;;;;;2.50;1.60;;;18.00;65.00;;;;;;5051244;28;20539;-62
2024/04/07 02:41:17;;;;;;;2.78;1.67;;;18.00;65.00;;;;;;5050774;28;20597;-62
2024/04/07 02:43:43;;;;;;;3.25;2.30;;;18.00;65.00;;;;;;5052476;28;20618;-62
2024/04/07 02:48:53;;;;;;;4.90;2.00;;;18.00;65.00;;;;;;5054442;28;20189;-62
2024/04/07 02:51:18;;;;;;;2.10;1.67;;;18.00;65.00;;;;;;5053739;28;20294;-63
2024/04/07 02:53:44;;;;;;;2.58;2.17;;;18.00;65.00;;;;;;5054861;28;20183;-63
2024/04/07 02:56:09;;;;;;;2.92;2.28;;;18.00;64.90;;;;;;5053048;28;20179;-62
2024/04/07 02:58:35;;;;;;;3.20;2.15;;;18.00;64.90;;;;;;5054778;28;20668;-62
2024/04/07 03:01:04;;;;;;;3.20;1.85;;;18.00;64.90;;;;;;5054487;28;20638;-60
2024/04/07 03:03:29;;;;;;;3.55;2.20;;;18.00;64.90;;;;;;5053921;28;20246;-61
2024/04/07 03:05:55;;;;;;;2.20;1.60;;;18.00;64.90;;;;;;5054263;28;20603;-62
2024/04/07 03:08:21;;;;;;;3.08;1.63;;;18.00;64.80;;;;;;5054598;28;20190;-62
2024/04/07 03:10:59;;;;;;;2.38;1.90;;;18.00;64.90;;;;;;5054063;28;20198;-64
2024/04/07 03:13:24;;;;;;;3.45;2.17;;;18.00;64.90;;;;;;5054199;28;20205;-62
2024/04/07 03:15:50;;;;;;;2.00;1.83;;;18.00;64.80;;;;;;5053668;28;20168;-61
2024/04/07 03:18:15;;;;;;;1.98;1.77;;;18.00;64.90;;;;;;5053534;28;20183;-61
2024/04/07 03:20:41;;;;;;;2.70;2.10;;;18.00;64.80;;;;;;5054635;28;20252;-62
2024/04/07 03:23:07;;;;;;;2.35;1.80;;;18.00;64.80;;;;;;5054397;28;20626;-62
2024/04/07 03:25:32;;;;;;;2.45;1.70;;;18.00;64.80;;;;;;5052582;28;20630;-62
2024/04/07 03:27:58;;;;;;;3.05;1.70;;;18.00;64.80;;;;;;5053800;28;20179;-61
2024/04/07 03:30:23;;;;;;;1.75;1.42;;;18.00;64.80;;;;;;5053673;28;20281;-62
2024/04/07 03:32:49;;;;;;;2.08;1.90;;;17.90;64.70;;;;;;5053258;28;20258;-61
2024/04/07 03:35:14;;;;;;;1.63;1.52;;;18.00;64.80;;;;;;5053169;28;20237;-62
2024/04/07 03:37:40;;;;;;;2.00;1.63;;;18.00;64.80;;;;;;5054241;28;20286;-61
2024/04/07 03:40:06;;;;;;;2.53;1.80;;;18.00;64.80;;;;;;5053223;28;20210;-61
2024/04/07 03:42:31;;;;;;;2.90;1.85;;;18.00;64.80;;;;;;5053346;28;20223;-62
2024/04/07 03:44:57;;;;;;;2.80;1.75;;;18.00;64.80;;;;;;5053601;28;20183;-61
2024/04/07 03:47:22;;;;;;;2.08;1.65;;;18.00;64.80;;;;;;5052645;28;20186;-62
2024/04/07 03:49:48;;;;;;;2.30;1.65;;;18.00;64.80;;;;;;5053991;28;20182;-62
2024/04/07 03:52:21;;;;;;;2.15;1.95;;;18.00;64.70;;;;;;5053400;28;20294;-62
2024/04/07 03:54:48;;;;;;;1.95;1.83;;;18.00;64.70;;;;;;5053460;28;20309;-63
2024/04/07 03:57:13;;;;;;;2.38;1.67;;;18.00;64.70;;;;;;5052926;28;20186;-62
2024/04/07 03:59:39;;;;;;;1.73;1.63;;;18.00;64.70;;;;;;5052798;28;20512;-62
2024/04/07 04:02:05;;;;;;;2.45;1.60;;;18.00;64.70;;;;;;5053159;28;20645;-61
2024/04/07 04:04:31;;;;;;;2.28;1.63;;;18.00;65.50;;;;;;5052992;28;20669;-62
2024/04/07 04:06:57;;;;;;;2.53;1.52;;;18.00;64.70;;;;;;5052427;28;20195;-62
2024/04/07 04:09:22;;;;;;;2.53;1.83;;;18.00;64.60;;;;;;5052595;28;20532;-62
2024/04/07 04:11:48;;;;;;;2.33;1.50;;;17.90;64.50;;;;;;5053151;28;20652;-63
2024/04/07 04:14:13;;;;;;;1.65;1.40;;;17.90;64.50;;;;;;5052166;28;20182;-61
2024/04/07 04:16:41;;;;;;;2.03;1.52;;;17.90;64.50;;;;;;5040900;28;20267;-62
2024/04/07 04:19:07;;;;;;;1.58;1.48;;;17.90;64.50;;;;;;5033075;28;20176;-61
2024/04/07 04:21:33;;;;;;;2.95;1.65;;;18.00;64.50;;;;;;5032427;28;20665;-62
2024/04/07 04:23:59;;;;;;;2.03;1.42;;;17.90;64.50;;;;;;5033060;28;20255;-61
2024/04/07 04:26:26;;;;;;;1.55;1.17;;;18.00;64.50;;;;;;5041785;28;20198;-61
2024/04/07 04:28:52;;;;;;;1.73;1.55;;;18.00;64.50;;;;;;5039375;28;20538;-60
2024/04/07 04:31:18;;;;;;;1.85;1.73;;;17.90;64.50;;;;;;5032998;28;20645;-60
2024/04/07 04:33:43;;;;;;;1.83;1.60;;;17.90;64.50;;;;;;5033346;28;20259;-61
2024/04/07 04:36:15;;;;;;;2.47;1.70;;;17.90;64.40;;;;;;5031963;28;20246;-61
2024/04/07 04:38:41;;;;;;;2.03;1.30;;;17.90;64.50;;;;;;5032782;28;20217;-61
2024/04/07 04:41:06;;;;;;;1.80;1.55;;;17.90;64.40;;;;;;5032037;28;20190;-61
2024/04/07 04:43:32;;;;;;;2.40;1.60;;;17.90;64.40;;;;;;5031680;28;20211;-60
2024/04/07 04:46:03;;;;;;;2.03;1.80;;;17.90;64.40;;;;;;5032583;28;20180;-61
2024/04/07 04:48:32;;;;;;;2.00;1.80;;;17.90;64.40;;;;;;5032570;28;20183;-62
2024/04/07 04:50:57;;;;;;;3.10;1.58;;;17.90;64.40;;;;;;5032097;28;20182;-62
2024/04/07 04:53:23;;;;;;;3.35;1.42;;;17.90;64.40;;;;;;5032378;28;20176;-62
2024/04/07 04:55:48;;;;;;;2.20;1.58;;;17.90;64.40;;;;;;5032205;28;20180;-62
2024/04/07 04:58:14;;;;;;;1.35;1.25;;;18.00;64.40;;;;;;5032626;28;20539;-61
2024/04/07 05:00:39;;;;;;;1.38;1.13;;;17.90;64.40;;;;;;5032806;28;20172;-61
2024/04/07 05:03:05;;;;;;;1.88;1.30;;;17.90;64.30;;;;;;5031637;28;20345;-60
2024/04/07 05:05:31;;;;;;;1.25;1.15;;;17.90;64.30;;;;;;5031559;28;20225;-61
2024/04/07 05:07:57;;;;;;;2.30;1.55;;;17.90;64.30;;;;;;5032762;28;20244;-61
2024/04/07 05:10:22;;;;;;;1.65;1.40;;;17.90;64.30;;;;;;5031390;28;20590;-63
2024/04/07 05:12:48;;;;;;;1.63;1.52;;;17.90;64.30;;;;;;5032293;28;20176;-62
2024/04/07 05:15:14;;;;;;;1.55;1.25;;;17.90;64.30;;;;;;5031815;28;20267;-61
2024/04/07 05:17:39;;;;;;;2.38;1.33;;;17.90;64.30;;;;;;5031432;28;20221;-61
2024/04/07 05:20:05;;;;;;;1.33;1.23;;;17.90;64.20;;;;;;5032028;28;20179;-61
2024/04/07 05:22:31;;;;;;;1.70;1.60;;;17.90;64.20;;;;;;5031537;28;20692;-62
2024/04/07 05:24:57;;;;;;;1.67;1.30;;;17.90;64.20;;;;;;5031253;28;20183;-62
2024/04/07 05:27:23;;;;;;;1.38;1.27;;;17.90;64.20;;;;;;5031710;28;20178;-61
2024/04/07 05:29:48;;;;;;;3.95;1.58;;;17.80;64.10;;;;;;5032232;28;20183;-61
2024/04/07 05:32:14;;;;;;;1.88;1.23;;;17.90;64.20;;;;;;5031122;28;20189;-62
2024/04/07 05:34:40;;;;;;;1.80;1.70;;;17.90;65.00;;;;;;5032016;28;20538;-62
2024/04/07 05:37:06;;;;;;;1.08;0.98;;;17.90;64.10;;;;;;5032001;28;20178;-61
2024/04/07 05:39:32;;;;;;;2.63;1.42;;;17.90;64.10;;;;;;5043324;28;20187;-60
2024/04/07 05:41:57;;;;;;;1.77;1.40;;;17.90;64.10;;;;;;5051402;28;20576;-60
2024/04/07 05:44:23;;;;;;;1.50;1.40;;;17.90;64.00;;;;;;5050952;28;20290;-62
2024/04/07 05:46:51;;;;;;;1.85;1.20;;;17.90;64.00;;;;;;5051205;28;20581;-61
2024/04/07 05:49:16;;;;;;;1.20;1.10;;;17.90;64.00;;;;;;5041281;28;20219;-61
2024/04/07 05:51:42;;;;;;;2.00;1.30;;;17.90;64.00;;;;;;5031807;28;20206;-62
2024/04/07 05:54:08;;;;;;;1.70;1.17;;;17.90;64.00;;;;;;5030477;28;20183;-63
2024/04/07 05:56:33;;;;;;;1.80;1.42;;;17.90;64.00;;;;;;5031501;28;20186;-62
2024/04/07 05:58:59;;;;;;;2.38;1.40;;;17.90;64.00;;;;;;5037991;28;20281;-60
2024/04/07 06:01:26;;;;;;;1.90;1.15;;;17.90;64.00;;;;;;5051401;28;20178;-61
2024/04/07 06:03:51;;;;;;;1.70;1.40;;;17.80;63.90;;;;;;5051807;28;20203;-61
2024/04/07 06:06:17;;;;;;;1.30;1.10;;;17.90;64.00;;;;;;5050955;28;20270;-62
2024/04/07 06:08:42;;;;;;;1.98;1.20;;;17.90;64.00;;;;;;5050709;28;20193;-63
2024/04/07 06:11:08;;;;;;;1.48;1.38;;;17.90;63.90;;;;;;5050602;28;20258;-62
2024/04/07 06:13:33;;;;;;;1.60;1.50;;;17.90;63.90;;;;;;5050751;28;20258;-62
2024/04/07 06:15:59;;;;;;;1.55;1.45;;;17.90;63.90;;;;;;5051520;28;20221;-61
2024/04/07 06:18:25;;;;;;;1.60;1.50;;;17.90;63.90;;;;;;5052438;28;20605;-61
2024/04/07 06:20:51;;;;;;;1.17;1.10;;;17.90;63.90;;;;;;5054395;28;20664;-62
2024/04/07 06:23:16;;;;;;;1.15;1.15;;;17.90;63.90;;;;;;5054804;28;20234;-61
2024/04/07 06:25:42;;;;;;;1.92;1.20;;;17.90;63.80;;;;;;5055420;28;20638;-62
2024/04/07 06:28:08;;;;;;;2.30;1.33;;;17.90;63.80;;;;;;5053979;28;20206;-61
2024/04/07 06:30:35;;;;;;;1.10;1.00;;;17.90;63.80;;;;;;5055183;28;20207;-62
2024/04/07 06:33:04;;;;;;;1.98;1.30;;;17.90;63.80;;;;;;5055205;28;20228;-61
2024/04/07 06:35:30;;;;;;;2.22;1.35;;;17.90;63.90;;;;;;5054392;28;20175;-61
2024/04/07 06:37:55;;;;;;;1.58;1.00;;;17.90;64.70;;;;;;5054720;28;20536;-61
2024/04/07 06:40:21;;;;;;;2.08;1.45;;;17.90;63.80;;;;;;5054849;28;20183;-60
2024/04/07 06:42:46;;;;;;;1.27;1.17;;;17.90;63.80;;;;;;5054122;28;20219;-61
2024/04/07 06:45:12;;;;;;;1.33;1.23;;;17.90;63.80;;;;;;5054856;28;20185;-61
2024/04/07 06:47:38;;;;;;;1.30;1.20;;;17.90;63.80;;;;;;5053337;28;20231;-61
2024/04/07 06:50:05;;;;;;;1.77;1.27;;;17.90;63.70;;;;;;5054356;28;20612;-62
2024/04/07 06:52:30;;;;;;;1.65;1.42;;;17.90;63.70;;;;;;5054075;28;20228;-63
2024/04/07 06:54:56;;;;;;;1.40;0.90;;;17.90;63.70;;;;;;5053694;28;20175;-60
2024/04/07 06:57:21;;;;;;;1.73;1.40;;;17.90;63.70;;;;;;5046440;28;20270;-60
2024/04/07 06:59:47;;;;;;;1.67;1.13;;;17.90;63.70;;;;;;5034823;28;20173;-60
2024/04/07 07:02:13;;;;;;;1.95;1.10;;;17.90;63.70;;;;;;5034346;28;20191;-60
2024/04/07 07:04:39;;;;;;;2.05;1.30;;;17.90;63.70;;;;;;5034145;28;20175;-61
2024/04/07 07:07:04;;;;;;;1.38;1.10;;;17.90;63.60;;;;;;5034468;28;20178;-61
2024/04/07 07:09:30;;;;;;;1.17;1.08;;;17.90;63.60;;;;;;5033417;28;20212;-63
2024/04/07 07:11:55;;;;;;;1.30;1.20;;;17.90;63.60;;;;;;5034085;28;20253;-62
2024/04/07 07:14:21;;;;;;;1.20;1.10;;;17.90;63.50;;;;;;5034344;28;20203;-62
2024/04/07 07:16:47;;;;;;;1.50;1.40;;;18.00;63.50;;;;;;5052245;28;20186;-61
2024/04/07 07:19:12;;;;;;;1.65;0.90;;;18.00;63.40;;;;;;5054121;28;20576;-61
2024/04/07 07:21:38;;;;;;;1.42;1.10;;;18.00;63.30;;;;;;5054071;28;20638;-62
2024/04/07 07:24:03;;;;;;;1.13;1.00;;;18.00;63.30;;;;;;5053239;28;20211;-61
2024/04/07 07:26:30;;;;;;;1.10;1.05;;;18.00;63.30;;;;;;5038928;28;20203;-62
2024/04/07 07:28:55;;;;;;;1.23;0.95;;;18.00;63.30;;;;;;5033686;28;20175;-60
2024/04/07 07:31:21;;;;;;;1.13;0.93;;;18.00;63.30;;;;;;5033209;28;20194;-61
2024/04/07 07:33:47;;;;;;;1.45;1.23;;;18.00;63.30;;;;;;5034280;28;20609;-61
2024/04/07 07:36:12;;;;;;;2.22;1.30;;;18.00;63.40;;;;;;5048749;28;20170;-61
2024/04/07 07:38:38;;;;;;;2.25;1.33;;;17.90;63.30;;;;;;5052529;28;20194;-62
2024/04/07 07:41:03;;;;;;;1.48;0.95;;;17.90;63.50;;;;;;5051257;28;20649;-61
2024/04/07 07:43:30;;;;;;;1.10;1.00;;;17.90;63.60;;;;;;5043129;28;20214;-61
2024/04/07 07:45:56;;;;;;;1.23;1.13;;;17.90;63.50;;;;;;5043324;28;20246;-61
2024/04/07 07:48:22;;;;;;;1.67;1.10;;;18.00;63.40;;;;;;5046630;28;20241;-60
2024/04/07 07:50:47;;;;;;;3.03;1.70;;;18.00;64.10;;;;;;5042990;28;20168;-62
2024/04/07 07:53:13;;;;;;;1.23;1.13;;;18.00;65.40;;;;;;5042168;28;20167;-61
2024/04/07 07:55:38;;;;;;;2.17;1.27;;;18.00;65.00;;;;;;5043195;28;20634;-61
2024/04/07 07:58:04;;;;;;;1.30;1.17;;;18.10;65.50;;;;;;5045179;28;20626;-60
2024/04/07 08:00:29;;;;;;;2.78;1.15;;;18.10;63.90;;;;;;5052337;28;20702;-60
2024/04/07 08:02:55;;;;;;;2.80;1.40;;;18.10;63.60;;;;;;5039087;28;20234;-60
2024/04/07 08:05:20;;;;;;;2.50;1.20;;;18.10;63.90;;;;;;5033001;28;20179;-60
2024/04/07 08:07:49;;;;;;;2.42;1.13;;;18.20;64.20;;;;;;5032899;28;20229;-62
2024/04/07 08:10:14;;;;;;;1.40;1.10;;;18.20;64.40;;;;;;5033087;28;20180;-62
2024/04/07 08:12:40;;;;;;;2.33;1.20;;;18.20;64.70;;;;;;5033043;28;20168;-62
2024/04/07 08:15:06;;;;;;;1.35;1.10;;;18.20;64.40;;;;;;5033568;28;20543;-61
2024/04/07 08:17:33;;;;;;;1.38;1.02;;;18.30;64.50;;;;;;5033176;28;20306;-60
2024/04/07 08:19:58;;;;;;;1.33;1.20;;;18.30;64.50;;;;;;5033064;28;20290;-60
2024/04/07 08:22:24;;;;;;;1.55;1.45;;;18.20;64.40;;;;;;5040473;28;20250;-61
2024/04/07 08:24:49;;;;;;;2.00;1.20;;;18.30;64.40;;;;;;5053266;28;20648;-61
2024/04/07 08:27:15;;;;;;;2.50;1.17;;;18.30;64.30;;;;;;5052107;28;20174;-60
2024/04/07 08:29:41;;;;;;;3.80;1.50;;;18.30;64.30;;;;;;5053321;28;20179;-60
2024/04/07 08:32:09;;;;;;;1.80;1.20;;;18.30;64.40;;;;;;5052188;28;20190;-61
2024/04/07 08:34:35;;;;;;;1.30;1.13;;;18.40;64.30;;;;;;5052201;28;20179;-61
2024/04/07 08:37:00;;;;;;;1.45;1.20;;;18.40;64.30;;;;;;5047920;28;20217;-61
2024/04/07 08:39:26;;;;;;;1.52;1.13;;;18.40;64.30;;;;;;5032539;28;20191;-61
2024/04/07 08:41:51;;;;;;;1.35;1.10;;;18.40;64.30;;;;;;5031557;28;20223;-60
2024/04/07 08:44:18;;;;;;;2.88;1.30;;;18.40;64.30;;;;;;5032618;28;20222;-61
2024/04/07 08:46:44;;;;;;;1.98;1.30;;;18.40;64.30;;;;;;5032890;28;20187;-62
2024/04/07 08:49:10;;;;;;;1.83;1.00;;;18.40;64.30;;;;;;5030307;28;20186;-61
2024/04/07 08:51:36;;;;;;;2.35;1.20;;;18.50;64.40;;;;;;5031340;28;20183;-61
2024/04/07 08:54:03;;;;;;;3.33;1.45;;;18.50;64.40;;;;;;5050689;28;20539;-61
2024/04/07 08:56:28;;;;;;;1.23;1.13;;;18.50;65.30;;;;;;5051210;28;20236;-61
2024/04/07 08:58:54;;;;;;;1.92;1.10;;;18.50;64.40;;;;;;5051475;28;20178;-60
2024/04/07 09:01:20;;;;;;;1.33;1.08;;;18.50;64.40;;;;;;5051030;28;20194;-60
2024/04/07 09:03:46;;;;;;;2.05;1.10;;;18.50;64.40;;;;;;5051312;28;20213;-60
2024/04/07 09:06:11;;;;;;;1.90;1.02;;;18.50;64.40;;;;;;5051943;28;20175;-61
2024/04/07 09:08:37;;;;;;;1.50;1.23;;;18.50;64.40;;;;;;5050966;28;20567;-62
2024/04/07 09:11:02;;;;;;;1.35;1.13;;;18.50;64.40;;;;;;5051538;28;20657;-61
2024/04/07 09:13:28;;;;;;;2.72;1.10;;;18.50;64.40;;;;;;5051518;28;20181;-61
2024/04/07 09:15:53;;;;;;;1.23;1.10;;;18.60;64.40;;;;;;5051601;28;20175;-61
2024/04/07 09:18:22;;;;;;;1.90;0.80;;;18.60;64.40;;;;;;5049838;28;20409;-61
2024/04/07 09:20:47;;;;;;;2.17;1.00;;;18.60;64.50;;;;;;5051985;28;20282;-61
2024/04/07 09:23:13;;;;;;;2.28;1.08;;;18.60;64.50;;;;;;5050197;28;21144;-60
2024/04/07 09:25:39;;;;;;;1.80;1.10;;;18.60;64.50;;;;;;5052013;28;20171;-61
2024/04/07 09:28:04;;;;;;;1.65;1.23;;;18.60;64.40;;;;;;5051837;28;20262;-60
2024/04/07 09:30:32;;;;;;;3.38;1.40;;;18.60;64.40;;;;;;5050108;28;20167;-61
2024/04/07 09:32:58;;;;;;;1.33;1.23;;;18.60;64.40;;;;;;5044963;28;20217;-59
2024/04/07 09:35:24;;;;;;;3.08;1.13;;;18.60;64.50;;;;;;5031634;28;20180;-60
2024/04/07 09:37:50;;;;;;;5.10;1.38;;;18.60;64.50;;;;;;5031577;28;20179;-61
2024/04/07 09:40:15;;;;;;;1.67;1.15;;;18.60;64.60;;;;;;5031767;28;20171;-60
2024/04/07 09:42:41;;;;;;;1.63;1.10;;;18.60;64.40;;;;;;5033690;28;20277;-61
2024/04/07 09:45:08;;;;;;;4.53;1.52;;;18.60;64.20;;;;;;5047896;28;20182;-60
2024/04/07 09:47:35;;;;;;;2.75;1.38;;;18.60;64.30;;;;;;5042495;28;20262;-61
2024/04/07 09:50:34;;;;;;;1.98;1.10;;;18.60;64.50;;;;;;5040613;28;20172;-61
2024/04/07 09:53:12;;;;;;;1.48;1.20;;;18.60;64.50;;;;;;5038880;28;20188;-61
2024/04/07 09:55:39;;;;;;;3.17;1.25;;;18.60;64.50;;;;;;5035814;28;20660;-72
2024/04/07 09:58:05;;;;;;;3.35;1.30;;;18.60;64.70;;;;;;5031450;28;20184;-66
2024/04/07 10:00:31;;;;;;;2.60;1.20;;;18.60;64.40;;;;;;5030146;28;20718;-67
2024/04/07 10:02:57;;;;;;;3.15;1.30;;;18.70;64.30;;;;;;5029811;28;20569;-67
2024/04/07 10:05:23;;;;;;;3.88;1.42;;;18.80;65.30;;;;;;5029790;28;20180;-67
2024/04/07 10:07:48;;;;;;;7.25;1.50;;;18.80;64.50;;;;;;5030694;28;20175;-67
2024/04/07 10:10:14;;;;;;;6.55;2.35;;;18.80;65.70;;;;;;5029279;28;20179;-67
2024/04/07 10:12:39;;;;;;;2.33;1.38;;;18.90;66.00;;;;;;5043277;28;20278;-67
2024/04/07 10:15:05;;;;;;;7.18;1.65;;;18.90;65.00;;;;;;5047432;28;20179;-65
2024/04/07 10:17:31;;;;;;;3.63;1.83;;;18.90;65.80;;;;;;5047917;28;21545;-66
2024/04/07 10:19:57;;;;;;;6.05;1.60;;;18.90;65.90;;;;;;5050844;28;20711;-66
2024/04/07 10:22:24;;;;;;;3.67;1.33;;;18.90;66.30;;;;;;5050530;28;20642;-67
2024/04/07 10:24:52;;;;;;;5.63;1.63;;;18.90;66.40;;;;;;5051384;28;20183;-66
2024/04/07 10:27:25;;;;;;;5.10;1.65;;;18.90;66.50;;;;;;5050512;28;20175;-66
2024/04/07 10:29:54;;;;;;;5.72;1.40;;;19.00;66.70;;;;;;5051059;28;20529;-66
2024/04/07 10:32:25;;;;;;;4.05;2.03;;;19.00;66.80;;;;;;5036202;28;20262;-66
2024/04/07 10:35:02;;;;;;;4.15;1.65;;;19.00;67.00;;;;;;5029159;28;20689;-67
2024/04/07 10:37:29;;;;;;;3.75;1.52;;;19.00;67.00;;;;;;5029435;28;20206;-66
2024/04/07 10:39:55;;;;;;;4.43;1.60;;;19.00;67.10;;;;;;5030024;28;20255;-66
2024/04/07 10:42:21;;;;;;;4.15;1.45;;;19.00;67.20;;;;;;5030112;28;20319;-66
2024/04/07 10:44:46;;;;;;;4.05;1.50;;;19.10;67.20;;;;;;5030329;28;20176;-66
2024/04/07 10:47:12;;;;;;;4.93;1.60;;;19.20;67.10;;;;;;5031042;28;20179;-66
2024/04/07 10:49:38;;;;;;;3.15;1.30;;;19.20;67.00;;;;;;5029624;28;20183;-66
2024/04/07 10:52:03;;;;;;;3.15;1.20;;;19.30;66.40;;;;;;5045945;28;20179;-67
2024/04/07 10:54:33;;;;;;;5.57;1.55;;;19.30;66.30;;;;;;5048284;28;20224;-68
2024/04/07 10:56:58;;;;;;;5.65;1.20;;;19.40;66.20;;;;;;5039193;28;20187;-66
2024/04/07 10:59:24;;;;;;;7.55;1.40;;;19.40;66.20;;;;;;5049818;28;20653;-66
2024/04/07 11:01:49;;;;;;;5.28;1.48;;;19.50;66.10;;;;;;5037314;28;20195;-65
2024/04/07 11:04:15;;;;;;;4.13;1.70;;;19.50;65.80;;;;;;5031408;28;20212;-66
2024/04/07 11:06:40;;;;;;;4.22;1.50;;;19.50;65.50;;;;;;5034744;28;20191;-66
2024/04/07 11:09:06;;;;;;;4.45;1.70;;;19.50;65.10;;;;;;5032325;28;20266;-67
2024/04/07 11:11:32;;;;;;;4.72;1.45;;;19.40;64.90;;;;;;5034373;28;20651;-72
2024/04/07 11:13:58;;;;;;;2.50;1.23;;;19.30;64.80;;;;;;5048385;28;20179;-64
2024/04/07 11:16:23;;;;;;;2.78;1.60;;;19.40;64.90;;;;;;5053244;28;20183;-67
2024/04/07 11:18:49;;;;;;;4.25;1.70;;;19.40;65.00;;;;;;5054406;28;20182;-66
2024/04/07 11:21:14;;;;;;;4.57;1.65;;;19.40;65.10;;;;;;5053982;28;20175;-68
2024/04/07 11:23:40;;;;;;;6.70;1.52;;;19.50;64.70;;;;;;5052340;28;20575;-63
2024/04/07 11:26:05;;;;;;;2.33;1.10;;;19.50;64.70;;;;;;5054398;28;20656;-65
2024/04/07 11:28:31;;;;;;;3.35;1.20;;;19.60;64.70;;;;;;5053698;28;20624;-67
2024/04/07 11:30:56;;;;;;;3.95;1.70;;;19.60;64.60;;;;;;5051441;28;20649;-66
2024/04/07 11:33:23;;;;;;;5.18;1.50;;;19.60;65.00;;;;;;5043766;28;20703;-68
2024/04/07 11:35:49;;;;;;;6.32;1.63;;;19.60;65.10;;;;;;5042728;28;20172;-69
2024/04/07 11:38:14;;;;;;;3.67;0.95;;;19.60;64.80;;;;;;5041140;28;20225;-68
2024/04/07 11:40:40;;;;;;;3.90;1.00;;;19.60;64.40;;;;;;5052752;28;20202;-69
2024/04/07 11:43:06;;;;;;;3.15;1.20;;;19.70;64.10;;;;;;5053566;28;20281;-68
2024/04/07 11:45:32;;;;;;;4.93;1.20;;;19.70;64.00;;;;;;5053212;28;20183;-68
2024/04/07 11:47:59;;;;;;;3.47;1.33;;;19.70;63.90;;;;;;5048925;28;20275;-67
2024/04/07 11:50:24;;;;;;;3.25;1.23;;;19.60;63.80;;;;;;5033651;28;20180;-68
2024/04/07 11:52:50;;;;;;;3.72;1.50;;;19.70;63.80;;;;;;5032902;28;20183;-68
2024/04/07 11:55:16;;;;;;;3.53;1.27;;;19.70;63.80;;;;;;5031491;28;20179;-68
2024/04/07 11:57:41;;;;;;;2.53;1.17;;;19.70;63.70;;;;;;5034965;28;20237;-68
2024/04/07 12:00:07;;;;;;;4.07;1.30;;;19.80;63.80;;;;;;5049907;28;20182;-68
2024/04/07 12:02:33;;;;;;;2.78;1.38;;;19.80;63.80;;;;;;5050128;28;20175;-68
2024/04/07 12:04:59;;;;;;;1.83;1.27;;;19.70;63.90;;;;;;5050880;28;20263;-68
2024/04/07 12:07:24;;;;;;;1.83;1.10;;;19.70;63.80;;;;;;5051231;28;20595;-68
2024/04/07 12:09:50;;;;;;;2.45;1.15;;;19.80;63.70;;;;;;5052035;28;20601;-69
2024/04/07 12:12:16;;;;;;;5.15;1.52;;;19.80;63.70;;;;;;5051003;28;20250;-68
2024/04/07 12:14:41;;;;;;;1.85;1.10;;;19.80;63.50;;;;;;5052918;28;20274;-68
2024/04/07 12:17:07;;;;;;;3.38;1.30;;;19.90;63.50;;;;;;5052275;28;20892;-67
2024/04/07 12:19:33;;;;;;;1.38;1.10;;;19.90;63.50;;;;;;5051321;28;20642;-68
2024/04/07 12:21:59;;;;;;;3.65;1.25;;;19.90;63.40;;;;;;5053243;28;20521;-68
2024/04/07 12:24:25;;;;;;;2.13;1.10;;;19.90;63.40;;;;;;5052426;28;20317;-68
2024/04/07 12:26:51;;;;;;;3.63;1.00;;;20.00;63.40;;;;;;5052601;28;20180;-68
2024/04/07 12:29:17;;;;;;;2.72;1.00;;;20.00;63.10;;;;;;5052839;28;20652;-68
2024/04/07 12:31:43;;;;;;;3.20;0.90;;;20.00;62.90;;;;;;5053311;28;20232;-68
2024/04/07 12:34:08;;;;;;;2.90;1.30;;;20.10;62.90;;;;;;5051658;28;20834;-68
2024/04/07 12:36:35;;;;;;;2.22;1.00;;;20.10;62.60;;;;;;5053115;28;20709;-69
2024/04/07 12:39:04;;;;;;;2.25;0.80;;;20.10;62.60;;;;;;5051453;28;20187;-67
2024/04/07 12:41:31;;;;;;;1.55;0.90;;;20.20;62.50;;;;;;5051907;28;20230;-68
2024/04/07 12:43:57;;;;;;;2.13;1.15;;;20.20;62.50;;;;;;5051950;28;20689;-66